Aberdeen, Ohio
Current Conditions -  °F | °C
As of 4:55 AM on Thursday 29 Jan 2015 (Local Time) from KFGX Reporting Station
Clear Clear  
Wind Chill: 25°   Ceiling: Unl
Heat Index: 34°   Visibility: 10mi
Dew Point: 21°   Wind: 13mph
Humidity: 60%   Direction: 180°S
Pressure: 30.03"   Gusts: 18mph
Location:  38.66°N, 83.76°W
Report Text: KFGX 290955Z AUTO 18011G16KT 10SM CLR 01/M06 A3003 RMK AO2 T00101061
Loading
Personal Weather Stations






























Interactive Weather Map New forecast layout! Learn more

10-Day Weather Forecast

Advertisements
Track Severe Weather on mobile